createdAt,value
2016-11-28T00:00:19.798Z,929.99
2016-11-28T00:00:47.680Z,930.04
2016-11-28T00:01:15.515Z,930.02
2016-11-28T00:01:43.270Z,929.99
2016-11-28T00:02:11.107Z,930.03
2016-11-28T00:02:39.045Z,930.04
2016-11-28T00:03:06.835Z,930.03
2016-11-28T00:03:34.732Z,930.07
2016-11-28T00:04:02.604Z,930.07
2016-11-28T00:04:30.407Z,930.05
2016-11-28T00:04:58.306Z,930.09
2016-11-28T00:05:26.210Z,930.08
2016-11-28T00:05:53.956Z,930.04
2016-11-28T00:06:21.698Z,930.04
2016-11-28T00:06:49.541Z,930.02
2016-11-28T00:07:17.336Z,930.04
2016-11-28T00:07:45.209Z,930.04
2016-11-28T00:08:13.026Z,930
2016-11-28T00:08:40.860Z,930
2016-11-28T00:09:08.713Z,929.99
2016-11-28T00:09:36.595Z,930.04
2016-11-28T00:10:04.431Z,930.08
2016-11-28T00:10:32.247Z,930.05
2016-11-28T00:11:00.020Z,930.04
2016-11-28T00:11:27.896Z,930.08
2016-11-28T00:11:55.687Z,930.09
2016-11-28T00:12:23.501Z,930.04
2016-11-28T00:12:51.313Z,930.08
2016-11-28T00:13:19.134Z,930.08
2016-11-28T00:13:46.895Z,930.07
2016-11-28T00:14:14.775Z,930.08
2016-11-28T00:14:42.596Z,930.07
2016-11-28T00:15:10.387Z,930.05
2016-11-28T00:15:38.153Z,930.05
2016-11-28T00:16:05.958Z,930.02
2016-11-28T00:16:33.777Z,930.03
2016-11-28T00:17:01.593Z,930.03
2016-11-28T00:17:29.527Z,930.07
2016-11-28T00:17:57.323Z,930.04
2016-11-28T00:18:25.132Z,930.06
2016-11-28T00:18:52.948Z,930.05
2016-11-28T00:19:20.940Z,930.03
2016-11-28T00:19:48.721Z,930.04
2016-11-28T00:20:16.502Z,930.02
2016-11-28T00:20:44.295Z,930.06
2016-11-28T00:21:12.044Z,930.03
2016-11-28T00:21:39.880Z,930.05
2016-11-28T00:22:07.813Z,930.04
2016-11-28T00:22:35.632Z,930.01
2016-11-28T00:23:03.453Z,930.03
2016-11-28T00:23:31.206Z,930.03
2016-11-28T00:23:59.278Z,930.01
2016-11-28T00:24:27.150Z,930.04
2016-11-28T00:24:54.954Z,930.02
2016-11-28T00:25:23.351Z,930.03
2016-11-28T00:25:51.117Z,930.06
2016-11-28T00:26:18.973Z,930.03
2016-11-28T00:26:46.766Z,930.02
2016-11-28T00:27:14.701Z,930.02
2016-11-28T00:27:42.469Z,930.02
2016-11-28T00:28:10.287Z,930.01
2016-11-28T00:28:38.385Z,930.02
2016-11-28T00:29:06.269Z,930.03
2016-11-28T00:29:34.117Z,930.06
2016-11-28T00:30:02.071Z,930.09
2016-11-28T00:30:30.096Z,930.05
2016-11-28T00:30:57.944Z,930.06
2016-11-28T00:31:25.727Z,930.08
2016-11-28T00:31:53.480Z,930.09
2016-11-28T00:32:21.336Z,930.09
2016-11-28T00:32:49.108Z,930.13
2016-11-28T00:33:16.979Z,930.08
2016-11-28T00:33:44.851Z,930.12
2016-11-28T00:34:12.776Z,930.16
2016-11-28T00:34:40.590Z,930.14
2016-11-28T00:35:08.383Z,930.15
2016-11-28T00:35:36.169Z,930.14
2016-11-28T00:36:03.958Z,930.17
2016-11-28T00:36:31.729Z,930.16
2016-11-28T00:36:59.561Z,930.15
2016-11-28T00:37:27.297Z,930.15
2016-11-28T00:37:55.306Z,930.15
2016-11-28T00:38:23.352Z,930.17
2016-11-28T00:38:51.091Z,930.19
2016-11-28T00:39:19.126Z,930.17
2016-11-28T00:39:47.001Z,930.17
2016-11-28T00:40:14.853Z,930.17
2016-11-28T00:40:42.626Z,930.21
2016-11-28T00:41:10.537Z,930.17
2016-11-28T00:41:38.557Z,930.17
2016-11-28T00:42:06.412Z,930.17
2016-11-28T00:42:34.321Z,930.19
2016-11-28T00:43:02.129Z,930.21
2016-11-28T00:43:29.988Z,930.2
2016-11-28T00:43:57.968Z,930.23
2016-11-28T00:44:25.926Z,930.19
2016-11-28T00:44:53.893Z,930.2
2016-11-28T00:45:21.761Z,930.19
2016-11-28T00:45:49.699Z,930.2
2016-11-28T00:46:17.475Z,930.2
2016-11-28T00:46:45.287Z,930.22
2016-11-28T00:47:13.153Z,930.22
2016-11-28T00:47:41.141Z,930.22
2016-11-28T00:48:09.043Z,930.2
2016-11-28T00:48:36.911Z,930.25
2016-11-28T00:49:04.764Z,930.23
2016-11-28T00:49:32.508Z,930.24
2016-11-28T00:50:00.305Z,930.23
2016-11-28T00:50:28.145Z,930.25
2016-11-28T00:50:55.980Z,930.27
2016-11-28T00:51:23.738Z,930.26
2016-11-28T00:51:51.538Z,930.27
2016-11-28T00:52:19.395Z,930.27
2016-11-28T00:52:47.259Z,930.27
2016-11-28T00:53:15.133Z,930.26
2016-11-28T00:53:42.912Z,930.25
2016-11-28T00:54:10.926Z,930.22
2016-11-28T00:54:38.736Z,930.26
2016-11-28T00:55:06.528Z,930.25
2016-11-28T00:55:34.282Z,930.23
2016-11-28T00:56:02.204Z,930.26
2016-11-28T00:56:30.068Z,930.22
2016-11-28T00:56:57.899Z,930.24
2016-11-28T00:57:25.760Z,930.23
2016-11-28T00:57:53.529Z,930.26
2016-11-28T00:58:21.521Z,930.3
2016-11-28T00:58:49.490Z,930.26
2016-11-28T00:59:17.582Z,930.26
2016-11-28T00:59:45.330Z,930.25
2016-11-28T01:00:13.101Z,930.27
2016-11-28T01:00:40.970Z,930.31
2016-11-28T01:01:08.777Z,930.3
2016-11-28T01:01:36.550Z,930.29
2016-11-28T01:02:04.439Z,930.32
2016-11-28T01:02:32.395Z,930.34
2016-11-28T01:03:00.172Z,930.35
2016-11-28T01:03:28.060Z,930.38
2016-11-28T01:03:55.857Z,930.34
2016-11-28T01:04:23.718Z,930.37
2016-11-28T01:04:51.597Z,930.35
2016-11-28T01:05:19.360Z,930.39
2016-11-28T01:05:47.150Z,930.38
2016-11-28T01:06:15.059Z,930.39
2016-11-28T01:06:42.816Z,930.39
2016-11-28T01:07:10.671Z,930.38
2016-11-28T01:07:38.457Z,930.37
2016-11-28T01:08:06.351Z,930.37
2016-11-28T01:08:34.171Z,930.36
2016-11-28T01:09:02.032Z,930.35
2016-11-28T01:09:29.904Z,930.39
2016-11-28T01:09:57.671Z,930.39
2016-11-28T01:10:25.559Z,930.42
2016-11-28T01:10:53.366Z,930.37
2016-11-28T01:11:21.202Z,930.41
2016-11-28T01:11:49.043Z,930.42
2016-11-28T01:12:16.826Z,930.41
2016-11-28T01:12:44.612Z,930.41
2016-11-28T01:13:12.372Z,930.43
2016-11-28T01:13:40.171Z,930.44
2016-11-28T01:14:07.945Z,930.44
2016-11-28T01:14:35.785Z,930.46
2016-11-28T01:15:03.561Z,930.45
2016-11-28T01:15:31.500Z,930.5
2016-11-28T01:15:59.444Z,930.5
2016-11-28T01:16:27.237Z,930.47
2016-11-28T01:16:55.098Z,930.49
2016-11-28T01:17:22.921Z,930.47
2016-11-28T01:17:50.761Z,930.48
2016-11-28T01:18:18.614Z,930.46
2016-11-28T01:18:46.486Z,930.46
2016-11-28T01:19:14.276Z,930.44
2016-11-28T01:19:42.143Z,930.43
2016-11-28T01:20:10.053Z,930.47
2016-11-28T01:20:37.827Z,930.42
2016-11-28T01:21:05.566Z,930.42
2016-11-28T01:21:33.484Z,930.43
2016-11-28T01:22:01.303Z,930.41
2016-11-28T01:22:29.134Z,930.41
2016-11-28T01:22:56.997Z,930.4
2016-11-28T01:23:24.819Z,930.46
2016-11-28T01:23:52.711Z,930.45
2016-11-28T01:24:20.485Z,930.43
2016-11-28T01:24:48.497Z,930.47
2016-11-28T01:25:16.303Z,930.47
2016-11-28T01:25:44.169Z,930.46
2016-11-28T01:26:12.102Z,930.46
2016-11-28T01:26:39.870Z,930.5
2016-11-28T01:27:07.813Z,930.48
2016-11-28T01:27:35.668Z,930.49
2016-11-28T01:28:03.469Z,930.53
2016-11-28T01:28:31.333Z,930.52
2016-11-28T01:28:59.132Z,930.58
2016-11-28T01:29:27.043Z,930.51
2016-11-28T01:29:55.001Z,930.55
2016-11-28T01:30:22.799Z,930.52
2016-11-28T01:30:50.655Z,930.53
2016-11-28T01:31:18.442Z,930.47
2016-11-28T01:31:46.302Z,930.48
2016-11-28T01:32:14.140Z,930.46
2016-11-28T01:32:41.924Z,930.45
2016-11-28T01:33:09.919Z,930.45
2016-11-28T01:33:37.742Z,930.46
2016-11-28T01:34:05.736Z,930.47
2016-11-28T01:34:33.599Z,930.46
2016-11-28T01:35:01.365Z,930.45
2016-11-28T01:35:29.117Z,930.42
2016-11-28T01:35:56.848Z,930.43
2016-11-28T01:36:24.678Z,930.43
2016-11-28T01:36:52.488Z,930.42
2016-11-28T01:37:20.266Z,930.43
2016-11-28T01:37:48.149Z,930.42
2016-11-28T01:38:15.967Z,930.42
2016-11-28T01:38:43.759Z,930.39
2016-11-28T01:39:11.511Z,930.37
2016-11-28T01:39:39.407Z,930.41
2016-11-28T01:40:07.188Z,930.42
2016-11-28T01:40:35.062Z,930.42
2016-11-28T01:41:03.034Z,930.4
2016-11-28T01:41:30.830Z,930.41
2016-11-28T01:41:58.577Z,930.43
2016-11-28T01:42:26.465Z,930.47
2016-11-28T01:42:54.301Z,930.43
2016-11-28T01:43:22.084Z,930.45
2016-11-28T01:43:49.939Z,930.39
2016-11-28T01:44:17.759Z,930.4
2016-11-28T01:44:45.693Z,930.43
2016-11-28T01:45:13.488Z,930.42
2016-11-28T01:45:41.402Z,930.44
2016-11-28T01:46:09.279Z,930.44
2016-11-28T01:46:37.073Z,930.43
2016-11-28T01:47:04.942Z,930.45
2016-11-28T01:47:32.810Z,930.43
2016-11-28T01:48:00.606Z,930.44
2016-11-28T01:48:28.375Z,930.47
2016-11-28T01:48:56.288Z,930.46
2016-11-28T01:49:24.008Z,930.48
2016-11-28T01:49:52.137Z,930.46
2016-11-28T01:50:19.936Z,930.52
2016-11-28T01:50:47.696Z,930.51
2016-11-28T01:51:15.519Z,930.49
2016-11-28T01:51:43.290Z,930.49
2016-11-28T01:52:11.058Z,930.49
2016-11-28T01:52:38.996Z,930.47
2016-11-28T01:53:06.834Z,930.47
2016-11-28T01:53:34.658Z,930.5
2016-11-28T01:54:02.427Z,930.48
2016-11-28T01:54:30.286Z,930.48
2016-11-28T01:54:58.207Z,930.47
2016-11-28T01:55:26.084Z,930.47
2016-11-28T01:55:53.934Z,930.44
2016-11-28T01:56:21.759Z,930.47
2016-11-28T01:56:49.569Z,930.47
2016-11-28T01:57:17.316Z,930.49
2016-11-28T01:57:45.065Z,930.49
2016-11-28T01:58:12.805Z,930.45
2016-11-28T01:58:40.566Z,930.46
2016-11-28T01:59:08.343Z,930.52
2016-11-28T01:59:36.246Z,930.48
2016-11-28T02:00:04.187Z,930.47
2016-11-28T02:00:32.036Z,930.45
2016-11-28T02:00:59.930Z,930.44
2016-11-28T02:01:27.720Z,930.46
2016-11-28T02:01:55.516Z,930.46
2016-11-28T02:02:23.261Z,930.46
2016-11-28T02:02:51.190Z,930.45
2016-11-28T02:03:19.010Z,930.45
2016-11-28T02:03:46.863Z,930.44
2016-11-28T02:04:14.688Z,930.44
2016-11-28T02:04:42.439Z,930.42
2016-11-28T02:05:10.346Z,930.42
2016-11-28T02:05:38.126Z,930.43
2016-11-28T02:06:06.015Z,930.45
2016-11-28T02:06:33.814Z,930.44
2016-11-28T02:07:01.631Z,930.42
2016-11-28T02:07:29.494Z,930.44
2016-11-28T02:07:57.263Z,930.43
2016-11-28T02:08:25.063Z,930.43
2016-11-28T02:08:52.874Z,930.43
2016-11-28T02:09:20.656Z,930.44
2016-11-28T02:09:48.414Z,930.45
2016-11-28T02:10:16.450Z,930.41
2016-11-28T02:10:44.190Z,930.46
2016-11-28T02:11:11.945Z,930.44
2016-11-28T02:11:39.720Z,930.45
2016-11-28T02:12:07.566Z,930.47
2016-11-28T02:12:35.402Z,930.44
2016-11-28T02:13:03.232Z,930.42
2016-11-28T02:13:31.027Z,930.44
2016-11-28T02:13:58.775Z,930.41
2016-11-28T02:14:26.569Z,930.4
2016-11-28T02:14:54.390Z,930.43
2016-11-28T02:15:22.270Z,930.44
2016-11-28T02:15:50.040Z,930.43
2016-11-28T02:16:18.000Z,930.41
2016-11-28T02:16:45.815Z,930.42
2016-11-28T02:17:13.634Z,930.4
2016-11-28T02:17:41.407Z,930.39
2016-11-28T02:18:09.198Z,930.37
2016-11-28T02:18:36.981Z,930.35
2016-11-28T02:19:04.832Z,930.39
2016-11-28T02:19:32.628Z,930.39
2016-11-28T02:20:00.413Z,930.35
2016-11-28T02:20:28.283Z,930.38
2016-11-28T02:20:56.110Z,930.36
2016-11-28T02:21:23.908Z,930.35
2016-11-28T02:21:51.778Z,930.36
2016-11-28T02:22:19.621Z,930.32
2016-11-28T02:22:47.489Z,930.35
2016-11-28T02:23:15.333Z,930.32
2016-11-28T02:23:43.223Z,930.32
2016-11-28T02:24:11.012Z,930.34
2016-11-28T02:24:38.861Z,930.29
2016-11-28T02:25:06.614Z,930.32
2016-11-28T02:25:34.519Z,930.31
2016-11-28T02:26:02.331Z,930.28
2016-11-28T02:26:30.073Z,930.24
2016-11-28T02:26:57.966Z,930.26
2016-11-28T02:27:25.867Z,930.24
2016-11-28T02:27:53.765Z,930.27
2016-11-28T02:28:21.581Z,930.24
2016-11-28T02:28:49.368Z,930.21
2016-11-28T02:29:17.137Z,930.25
2016-11-28T02:29:44.994Z,930.28
2016-11-28T02:30:12.787Z,930.22
2016-11-28T02:30:40.751Z,930.19
2016-11-28T02:31:08.532Z,930.23
2016-11-28T02:31:36.380Z,930.24
2016-11-28T02:32:04.332Z,930.21
2016-11-28T02:32:32.241Z,930.2
2016-11-28T02:33:00.201Z,930.25
2016-11-28T02:33:28.069Z,930.21
2016-11-28T02:33:55.887Z,930.19
2016-11-28T02:34:23.660Z,930.19
2016-11-28T02:34:51.477Z,930.22
2016-11-28T02:35:19.255Z,930.24
2016-11-28T02:35:47.135Z,930.27
2016-11-28T02:36:14.956Z,930.24
2016-11-28T02:36:42.853Z,930.29
2016-11-28T02:37:10.691Z,930.29
2016-11-28T02:37:38.509Z,930.3
2016-11-28T02:38:06.318Z,930.28
2016-11-28T02:38:34.132Z,930.31
2016-11-28T02:39:01.883Z,930.33
2016-11-28T02:39:29.649Z,930.34
2016-11-28T02:39:57.376Z,930.34
2016-11-28T02:40:25.136Z,930.31
2016-11-28T02:40:53.039Z,930.3
2016-11-28T02:41:20.817Z,930.31
2016-11-28T02:41:48.625Z,930.34
2016-11-28T02:42:16.413Z,930.33
2016-11-28T02:42:44.303Z,930.36
2016-11-28T02:43:12.045Z,930.36
2016-11-28T02:43:39.812Z,930.32
2016-11-28T02:44:07.655Z,930.32
2016-11-28T02:44:35.433Z,930.34
2016-11-28T02:45:03.234Z,930.34
2016-11-28T02:45:31.016Z,930.32
2016-11-28T02:45:59.007Z,930.35
2016-11-28T02:46:26.822Z,930.34
2016-11-28T02:46:54.694Z,930.36
2016-11-28T02:47:22.548Z,930.34
2016-11-28T02:47:50.315Z,930.36
2016-11-28T02:48:18.123Z,930.33
2016-11-28T02:48:45.912Z,930.35
2016-11-28T02:49:13.751Z,930.35
2016-11-28T02:49:41.588Z,930.34
2016-11-28T02:50:09.485Z,930.36
2016-11-28T02:50:37.569Z,930.32
2016-11-28T02:51:05.349Z,930.3
2016-11-28T02:51:33.095Z,930.3
2016-11-28T02:52:00.880Z,930.32
2016-11-28T02:52:28.615Z,930.31
2016-11-28T02:52:56.420Z,930.26
2016-11-28T02:53:24.203Z,930.29
2016-11-28T02:53:52.032Z,930.24
2016-11-28T02:54:19.815Z,930.27
2016-11-28T02:54:47.603Z,930.24
2016-11-28T02:55:15.422Z,930.2
2016-11-28T02:55:43.317Z,930.18
2016-11-28T02:56:11.199Z,930.18
2016-11-28T02:56:38.999Z,930.18
2016-11-28T02:57:06.841Z,930.18
2016-11-28T02:57:34.649Z,930.21
2016-11-28T02:58:02.472Z,930.2
2016-11-28T02:58:30.300Z,930.21
2016-11-28T02:58:58.132Z,930.16
2016-11-28T02:59:25.921Z,930.21
2016-11-28T02:59:53.715Z,930.2
2016-11-28T03:00:21.477Z,930.21
2016-11-28T03:00:49.338Z,930.24
2016-11-28T03:01:17.107Z,930.23
2016-11-28T03:01:44.929Z,930.23
2016-11-28T03:02:12.744Z,930.24
2016-11-28T03:02:40.630Z,930.26
2016-11-28T03:03:08.411Z,930.3
2016-11-28T03:03:36.220Z,930.29
2016-11-28T03:04:04.082Z,930.31
2016-11-28T03:04:31.953Z,930.3
2016-11-28T03:04:59.784Z,930.33
2016-11-28T03:05:27.641Z,930.34
2016-11-28T03:05:55.556Z,930.31
2016-11-28T03:06:23.326Z,930.29
2016-11-28T03:06:51.155Z,930.3
2016-11-28T03:07:18.956Z,930.31
2016-11-28T03:07:46.697Z,930.28
2016-11-28T03:08:14.540Z,930.31
2016-11-28T03:08:42.327Z,930.3
2016-11-28T03:09:10.266Z,930.32
2016-11-28T03:09:38.172Z,930.34
2016-11-28T03:10:05.937Z,930.28
2016-11-28T03:10:33.740Z,930.32
2016-11-28T03:11:01.632Z,930.3
2016-11-28T03:11:29.480Z,930.29
2016-11-28T03:11:57.368Z,930.33
2016-11-28T03:12:25.207Z,930.33
2016-11-28T03:12:53.032Z,930.31
2016-11-28T03:13:20.844Z,930.3
2016-11-28T03:13:48.703Z,930.32
2016-11-28T03:14:16.624Z,930.31
2016-11-28T03:14:44.460Z,930.31
2016-11-28T03:15:12.263Z,930.31
2016-11-28T03:15:39.999Z,930.34
2016-11-28T03:16:07.915Z,930.31
2016-11-28T03:16:35.732Z,930.31
2016-11-28T03:17:03.598Z,930.27
2016-11-28T03:17:31.386Z,930.25
2016-11-28T03:17:59.236Z,930.28
2016-11-28T03:18:26.968Z,930.26
2016-11-28T03:18:54.810Z,930.28
2016-11-28T03:19:22.643Z,930.22
2016-11-28T03:19:50.426Z,930.27
2016-11-28T03:20:18.304Z,930.26
2016-11-28T03:20:46.059Z,930.29
2016-11-28T03:21:13.996Z,930.27
2016-11-28T03:21:41.869Z,930.3
2016-11-28T03:22:09.652Z,930.29
2016-11-28T03:22:37.410Z,930.3
2016-11-28T03:23:05.225Z,930.28
2016-11-28T03:23:33.004Z,930.26
2016-11-28T03:24:00.849Z,930.27
2016-11-28T03:24:28.689Z,930.24
2016-11-28T03:24:56.507Z,930.24
2016-11-28T03:25:24.366Z,930.24
2016-11-28T03:25:52.165Z,930.22
2016-11-28T03:26:20.010Z,930.24
2016-11-28T03:26:47.822Z,930.16
2016-11-28T03:27:15.670Z,930.19
2016-11-28T03:27:43.518Z,930.17
2016-11-28T03:28:11.476Z,930.15
2016-11-28T03:28:39.291Z,930.19
2016-11-28T03:29:07.214Z,930.2
2016-11-28T03:29:34.965Z,930.19
2016-11-28T03:30:02.838Z,930.18
2016-11-28T03:30:30.683Z,930.19
2016-11-28T03:30:58.606Z,930.16
2016-11-28T03:31:26.455Z,930.22
2016-11-28T03:31:54.398Z,930.2
2016-11-28T03:32:22.201Z,930.2
2016-11-28T03:32:49.980Z,930.24
2016-11-28T03:33:18.028Z,930.23
2016-11-28T03:33:45.814Z,930.21
2016-11-28T03:34:13.668Z,930.25
2016-11-28T03:34:41.548Z,930.26
2016-11-28T03:35:09.374Z,930.24
2016-11-28T03:35:37.183Z,930.25
2016-11-28T03:36:04.920Z,930.25
2016-11-28T03:36:32.857Z,930.26
2016-11-28T03:37:00.810Z,930.23
2016-11-28T03:37:28.642Z,930.22
2016-11-28T03:37:56.434Z,930.23
2016-11-28T03:38:24.220Z,930.21
2016-11-28T03:38:51.981Z,930.22
2016-11-28T03:39:19.728Z,930.2
2016-11-28T03:39:47.534Z,930.18
2016-11-28T03:40:15.357Z,930.18
2016-11-28T03:40:43.205Z,930.19
2016-11-28T03:41:11.131Z,930.15
2016-11-28T03:41:38.908Z,930.12
2016-11-28T03:42:06.841Z,930.12
2016-11-28T03:42:34.645Z,930.11
2016-11-28T03:43:02.423Z,930.14
2016-11-28T03:43:30.226Z,930.14
2016-11-28T03:43:58.073Z,930.12
2016-11-28T03:44:25.954Z,930.07
2016-11-28T03:44:53.686Z,930.1
2016-11-28T03:45:21.494Z,930.07
2016-11-28T03:45:49.328Z,930.1
2016-11-28T03:46:17.174Z,930.07
2016-11-28T03:46:45.109Z,930.09
2016-11-28T03:47:12.881Z,930.07
2016-11-28T03:47:40.719Z,930.08
2016-11-28T03:48:08.471Z,930.14
2016-11-28T03:48:36.270Z,930.13
2016-11-28T03:49:04.147Z,930.14
2016-11-28T03:49:31.965Z,930.16
2016-11-28T03:49:59.778Z,930.15
2016-11-28T03:50:27.536Z,930.12
2016-11-28T03:50:55.316Z,930.13
2016-11-28T03:51:23.203Z,930.12
2016-11-28T03:51:51.100Z,930.14
2016-11-28T03:52:18.853Z,930.11
2016-11-28T03:52:46.676Z,930.12
2016-11-28T03:53:14.438Z,930.1
2016-11-28T03:53:42.288Z,930.08
2016-11-28T03:54:10.073Z,930.08
2016-11-28T03:54:37.885Z,930.06
2016-11-28T03:55:05.798Z,930.05
2016-11-28T03:55:33.625Z,930.04
2016-11-28T03:56:01.415Z,930.01
2016-11-28T03:56:29.265Z,929.99
2016-11-28T03:56:57.077Z,929.98
2016-11-28T03:57:24.926Z,929.98
2016-11-28T03:57:52.687Z,930
2016-11-28T03:58:20.465Z,929.98
2016-11-28T03:58:48.266Z,929.97
2016-11-28T03:59:16.057Z,930
2016-11-28T03:59:43.901Z,929.97
2016-11-28T04:00:11.720Z,929.99
2016-11-28T04:00:39.561Z,929.97
2016-11-28T04:01:07.467Z,929.93
2016-11-28T04:01:35.581Z,929.93
2016-11-28T04:02:03.348Z,929.94
2016-11-28T04:02:31.144Z,929.92
2016-11-28T04:02:58.907Z,929.93
2016-11-28T04:03:26.877Z,929.94
2016-11-28T04:03:54.636Z,929.93
2016-11-28T04:04:22.431Z,929.94
2016-11-28T04:04:50.277Z,929.9
2016-11-28T04:05:18.140Z,929.92
2016-11-28T04:05:45.893Z,929.91
2016-11-28T04:06:13.675Z,929.94
2016-11-28T04:06:41.544Z,929.95
2016-11-28T04:07:09.430Z,929.9
2016-11-28T04:07:37.186Z,929.88
2016-11-28T04:08:04.983Z,929.9
2016-11-28T04:08:32.785Z,929.88
2016-11-28T04:09:00.645Z,929.87
2016-11-28T04:09:28.454Z,929.88
2016-11-28T04:09:56.338Z,929.86
2016-11-28T04:10:24.108Z,929.86
2016-11-28T04:10:51.902Z,929.88
2016-11-28T04:11:19.742Z,929.87
2016-11-28T04:11:47.624Z,929.81
2016-11-28T04:12:15.446Z,929.85
2016-11-28T04:12:43.347Z,929.81
2016-11-28T04:13:11.175Z,929.83
2016-11-28T04:13:38.963Z,929.78
2016-11-28T04:14:06.813Z,929.81
2016-11-28T04:14:34.601Z,929.84
2016-11-28T04:15:02.427Z,929.82
2016-11-28T04:15:30.251Z,929.78
2016-11-28T04:15:58.040Z,929.78
2016-11-28T04:16:25.833Z,929.8
2016-11-28T04:16:53.680Z,929.78
2016-11-28T04:17:21.452Z,929.81
2016-11-28T04:17:49.375Z,929.77
2016-11-28T04:18:17.269Z,929.75
2016-11-28T04:18:45.085Z,929.78
2016-11-28T04:19:12.902Z,929.75
2016-11-28T04:19:40.683Z,929.76
2016-11-28T04:20:08.612Z,929.76
2016-11-28T04:20:36.379Z,929.72
2016-11-28T04:21:04.165Z,929.78
2016-11-28T04:21:32.039Z,929.74
2016-11-28T04:21:59.913Z,929.78
2016-11-28T04:22:27.661Z,929.73
2016-11-28T04:22:55.544Z,929.75
2016-11-28T04:23:23.281Z,929.78
2016-11-28T04:23:51.095Z,929.8
2016-11-28T04:24:18.826Z,929.77
2016-11-28T04:24:46.677Z,929.74
2016-11-28T04:25:14.431Z,929.76
2016-11-28T04:25:42.265Z,929.76
2016-11-28T04:26:10.062Z,929.79
2016-11-28T04:26:37.916Z,929.79
2016-11-28T04:27:06.012Z,929.81
2016-11-28T04:27:33.782Z,929.79
2016-11-28T04:28:01.547Z,929.76
2016-11-28T04:28:29.527Z,929.78
2016-11-28T04:28:57.275Z,929.73
2016-11-28T04:29:25.083Z,929.78
2016-11-28T04:29:52.875Z,929.76
2016-11-28T04:30:20.704Z,929.75
2016-11-28T04:30:48.527Z,929.76
2016-11-28T04:31:16.527Z,929.75
2016-11-28T04:31:44.361Z,929.73
2016-11-28T04:32:12.214Z,929.75
2016-11-28T04:32:39.996Z,929.72
2016-11-28T04:33:07.747Z,929.73
2016-11-28T04:33:35.532Z,929.67
2016-11-28T04:34:03.421Z,929.67
2016-11-28T04:34:31.170Z,929.68
2016-11-28T04:34:59.290Z,929.72
2016-11-28T04:35:27.082Z,929.69
2016-11-28T04:35:55.450Z,929.7
2016-11-28T04:36:23.288Z,929.68
2016-11-28T04:36:51.055Z,929.67
2016-11-28T04:37:19.059Z,929.65
2016-11-28T04:37:46.821Z,929.61
2016-11-28T04:38:14.570Z,929.55
2016-11-28T04:38:42.356Z,929.56
2016-11-28T04:39:10.205Z,929.59
2016-11-28T04:39:37.966Z,929.54
2016-11-28T04:40:05.789Z,929.5
2016-11-28T04:40:33.614Z,929.51
2016-11-28T04:41:01.403Z,929.48
2016-11-28T04:41:29.231Z,929.47
2016-11-28T04:41:56.994Z,929.46
2016-11-28T04:42:24.940Z,929.45
2016-11-28T04:42:52.776Z,929.42
2016-11-28T04:43:20.605Z,929.4
2016-11-28T04:43:48.457Z,929.39
2016-11-28T04:44:16.210Z,929.41
2016-11-28T04:44:43.981Z,929.37
2016-11-28T04:45:11.786Z,929.37
2016-11-28T04:45:39.641Z,929.36
2016-11-28T04:46:07.401Z,929.37
2016-11-28T04:46:35.190Z,929.38
2016-11-28T04:47:03.068Z,929.36
2016-11-28T04:47:31.040Z,929.35
2016-11-28T04:47:58.967Z,929.34
2016-11-28T04:48:26.821Z,929.36
2016-11-28T04:48:54.601Z,929.31
2016-11-28T04:49:22.341Z,929.33
2016-11-28T04:49:50.234Z,929.34
2016-11-28T04:50:18.083Z,929.34
2016-11-28T04:50:45.963Z,929.34
2016-11-28T04:51:13.706Z,929.41
2016-11-28T04:51:41.438Z,929.36
2016-11-28T04:52:09.428Z,929.36
2016-11-28T04:52:37.200Z,929.33
2016-11-28T04:53:05.009Z,929.37
2016-11-28T04:53:32.831Z,929.36
2016-11-28T04:54:00.597Z,929.35
2016-11-28T04:54:28.354Z,929.38
2016-11-28T04:54:56.216Z,929.37
2016-11-28T04:55:23.982Z,929.34
2016-11-28T04:55:51.803Z,929.37
2016-11-28T04:56:19.602Z,929.37
2016-11-28T04:56:47.408Z,929.4
2016-11-28T04:57:15.347Z,929.4
2016-11-28T04:57:43.132Z,929.42
2016-11-28T04:58:10.976Z,929.44
2016-11-28T04:58:38.824Z,929.43
2016-11-28T04:59:06.633Z,929.44
2016-11-28T04:59:34.442Z,929.44
2016-11-28T05:00:02.203Z,929.43
2016-11-28T05:00:30.105Z,929.42
2016-11-28T05:00:58.037Z,929.43
2016-11-28T05:01:25.844Z,929.45
2016-11-28T05:01:53.708Z,929.45
2016-11-28T05:02:21.646Z,929.46
2016-11-28T05:02:49.486Z,929.45
2016-11-28T05:03:17.434Z,929.43
2016-11-28T05:03:45.242Z,929.43
2016-11-28T05:04:13.006Z,929.45
2016-11-28T05:04:40.795Z,929.44
2016-11-28T05:05:08.632Z,929.43
2016-11-28T05:05:36.525Z,929.46
2016-11-28T05:06:04.279Z,929.46
2016-11-28T05:06:32.055Z,929.48
2016-11-28T05:06:59.904Z,929.44
2016-11-28T05:07:27.762Z,929.46
2016-11-28T05:07:55.564Z,929.42
2016-11-28T05:08:23.455Z,929.47
2016-11-28T05:08:51.214Z,929.44
2016-11-28T05:09:18.968Z,929.46
2016-11-28T05:09:46.899Z,929.47
2016-11-28T05:10:14.675Z,929.47
2016-11-28T05:10:42.442Z,929.43
2016-11-28T05:11:10.222Z,929.45
2016-11-28T05:11:38.088Z,929.48
2016-11-28T05:12:05.842Z,929.47
2016-11-28T05:12:33.824Z,929.47
2016-11-28T05:13:01.586Z,929.46
2016-11-28T05:13:29.368Z,929.42
2016-11-28T05:13:57.145Z,929.44
2016-11-28T05:14:25.040Z,929.45
2016-11-28T05:14:52.802Z,929.45
2016-11-28T05:15:20.642Z,929.42
2016-11-28T05:15:48.560Z,929.41
2016-11-28T05:16:16.312Z,929.43
2016-11-28T05:16:44.059Z,929.43
2016-11-28T05:17:11.947Z,929.43
2016-11-28T05:17:39.871Z,929.41
2016-11-28T05:18:07.630Z,929.39
2016-11-28T05:18:35.393Z,929.37
2016-11-28T05:19:03.385Z,929.34
2016-11-28T05:19:31.169Z,929.37
2016-11-28T05:19:58.951Z,929.35
2016-11-28T05:20:26.695Z,929.36
2016-11-28T05:20:54.494Z,929.37
2016-11-28T05:21:22.409Z,929.37
2016-11-28T05:21:50.262Z,929.34
2016-11-28T05:22:18.108Z,929.32
2016-11-28T05:22:45.957Z,929.3
2016-11-28T05:23:13.779Z,929.3
2016-11-28T05:23:41.634Z,929.23
2016-11-28T05:24:09.391Z,929.23
2016-11-28T05:24:37.172Z,929.22
2016-11-28T05:25:04.982Z,929.25
2016-11-28T05:25:32.823Z,929.24
2016-11-28T05:26:00.616Z,929.23
2016-11-28T05:26:28.488Z,929.22
2016-11-28T05:26:56.348Z,929.21
2016-11-28T05:27:24.217Z,929.21
2016-11-28T05:27:52.076Z,929.18
2016-11-28T05:28:19.928Z,929.13
2016-11-28T05:28:47.831Z,929.19
2016-11-28T05:29:15.720Z,929.18
2016-11-28T05:29:43.692Z,929.14
2016-11-28T05:30:11.531Z,929.15
2016-11-28T05:30:39.459Z,929.17
2016-11-28T05:31:07.263Z,929.16
2016-11-28T05:31:35.042Z,929.11
2016-11-28T05:32:02.947Z,929.09
2016-11-28T05:32:30.785Z,929.11
2016-11-28T05:32:58.724Z,929.1
2016-11-28T05:33:26.476Z,929.07
2016-11-28T05:33:54.268Z,929.05
2016-11-28T05:34:22.108Z,929.05
2016-11-28T05:34:49.884Z,929.01
2016-11-28T05:35:17.798Z,929.03
2016-11-28T05:35:45.657Z,928.99
2016-11-28T05:36:13.484Z,928.99
2016-11-28T05:36:41.795Z,929.02
2016-11-28T05:37:09.590Z,928.99
2016-11-28T05:37:37.419Z,928.99
2016-11-28T05:38:05.331Z,929
2016-11-28T05:38:33.107Z,929.01
2016-11-28T05:39:00.894Z,929.02
2016-11-28T05:39:28.827Z,929.02
2016-11-28T05:39:56.717Z,929.05
2016-11-28T05:40:24.503Z,929.06
2016-11-28T05:40:52.296Z,929.07
2016-11-28T05:41:20.063Z,929.09
2016-11-28T05:41:47.900Z,929.1
2016-11-28T05:42:15.680Z,929.07
2016-11-28T05:42:43.467Z,929.07
2016-11-28T05:43:11.423Z,929.1
2016-11-28T05:43:39.193Z,929.11
2016-11-28T05:44:06.965Z,929.06
2016-11-28T05:44:34.806Z,929.09
2016-11-28T05:45:02.600Z,929.11
2016-11-28T05:45:30.366Z,929.06
2016-11-28T05:45:58.242Z,929.07
2016-11-28T05:46:26.230Z,929.09
2016-11-28T05:46:54.111Z,929.08
2016-11-28T05:47:21.902Z,929.05
2016-11-28T05:47:49.883Z,929.06
2016-11-28T05:48:17.626Z,929.05